Time;durP1;ratioP1;P1;durP2;ratioP2;P2;SDS_P1;SDS_P2;PMS_P1;PMS_P2;Temp;Humidity;BMP_temperature;BMP_pressure;BME280_temperature;BME280_humidity;BME280_pressure;Samples;Min_cycle;Max_cycle;Signal;HPM_P1;HPM_P2
2023/07/30 00:01:48;;;;;;;10.95;6.70;;;15.70;99.90;;;;;;4961805;28;90303;-35
2023/07/30 00:04:14;;;;;;;8.27;6.13;;;15.70;99.90;;;;;;4963588;28;90014;-33
2023/07/30 00:06:40;;;;;;;10.45;5.80;;;15.60;99.90;;;;;;4963494;28;87589;-34
2023/07/30 00:09:06;;;;;;;9.73;5.82;;;15.70;99.90;;;;;;4962381;28;89733;-39
2023/07/30 00:11:32;;;;;;;8.90;5.50;;;15.70;99.90;;;;;;4962581;28;88715;-32
2023/07/30 00:13:57;;;;;;;9.27;5.07;;;15.70;99.90;;;;;;4962239;28;89453;-33
2023/07/30 00:16:25;;;;;;;10.63;5.97;;;15.60;99.90;;;;;;4962680;28;89541;-39
2023/07/30 00:18:51;;;;;;;8.00;5.03;;;15.60;99.90;;;;;;4963299;28;89248;-36
2023/07/30 00:21:17;;;;;;;13.23;6.28;;;15.60;99.90;;;;;;4961681;28;90310;-34
2023/07/30 00:23:42;;;;;;;10.40;5.38;;;15.50;99.90;;;;;;4962413;28;88851;-40
2023/07/30 00:26:08;;;;;;;10.52;5.05;;;15.50;99.90;;;;;;4962365;28;89158;-33
2023/07/30 00:28:33;;;;;;;9.48;5.15;;;15.50;99.90;;;;;;4962847;28;89417;-39
2023/07/30 00:30:59;;;;;;;8.80;4.80;;;15.50;99.90;;;;;;4962296;28;89427;-36
2023/07/30 00:33:24;;;;;;;9.40;5.57;;;15.50;99.90;;;;;;4961234;28;89778;-39
2023/07/30 00:35:53;;;;;;;10.55;5.57;;;15.50;99.90;;;;;;4963504;28;89637;-31
2023/07/30 00:38:19;;;;;;;7.00;5.30;;;15.50;99.90;;;;;;4962210;28;89221;-38
2023/07/30 00:40:45;;;;;;;11.55;6.00;;;15.50;99.90;;;;;;4962635;28;90337;-34
2023/07/30 00:43:10;;;;;;;11.43;5.90;;;15.40;99.90;;;;;;4961756;28;88900;-35
2023/07/30 00:45:40;;;;;;;9.07;5.80;;;15.40;99.90;;;;;;4962330;28;87666;-33
2023/07/30 00:48:05;;;;;;;8.68;6.05;;;15.40;99.90;;;;;;4962012;28;88351;-30
2023/07/30 00:50:32;;;;;;;10.98;6.20;;;15.40;99.90;;;;;;4962222;28;90665;-35
2023/07/30 00:52:58;;;;;;;11.00;6.18;;;15.40;99.90;;;;;;4961953;28;90953;-32
2023/07/30 00:55:24;;;;;;;10.85;6.25;;;15.40;99.90;;;;;;4961520;28;87612;-33
2023/07/30 00:57:50;;;;;;;9.68;6.10;;;15.30;99.90;;;;;;4960770;28;89258;-33
2023/07/30 01:00:16;;;;;;;13.10;6.38;;;15.30;99.90;;;;;;4961220;28;91325;-34
2023/07/30 01:02:43;;;;;;;10.55;4.93;;;15.30;99.90;;;;;;4961819;28;91197;-37
2023/07/30 01:05:09;;;;;;;16.50;6.88;;;15.40;99.90;;;;;;4962605;28;87588;-33
2023/07/30 01:07:34;;;;;;;12.95;6.32;;;15.30;99.90;;;;;;4960891;28;88503;-36
2023/07/30 01:10:01;;;;;;;11.43;6.00;;;15.30;99.90;;;;;;4962226;28;89787;-34
2023/07/30 01:12:29;;;;;;;9.77;4.72;;;15.30;99.90;;;;;;4959907;28;89846;-37
2023/07/30 01:14:56;;;;;;;15.18;6.68;;;15.20;99.90;;;;;;4961860;28;89085;-39
2023/07/30 01:17:22;;;;;;;12.85;6.20;;;15.20;99.90;;;;;;4961282;28;89834;-39
2023/07/30 01:19:49;;;;;;;8.90;5.97;;;15.20;99.90;;;;;;4967090;28;90373;-37
2023/07/30 01:22:15;;;;;;;10.60;6.22;;;15.10;99.90;;;;;;4960746;28;89453;-35
2023/07/30 01:24:41;;;;;;;8.85;5.90;;;15.10;99.90;;;;;;4961883;28;89920;-38
2023/07/30 01:27:09;;;;;;;7.85;6.45;;;15.10;99.90;;;;;;4962122;28;89131;-35
2023/07/30 01:29:40;;;;;;;9.63;5.45;;;15.00;99.90;;;;;;4961705;28;89951;-35
2023/07/30 01:32:08;;;;;;;12.90;6.20;;;15.00;99.90;;;;;;4960947;28;90409;-33
2023/07/30 01:34:36;;;;;;;10.68;6.50;;;15.00;99.90;;;;;;4961886;28;89579;-34
2023/07/30 01:37:02;;;;;;;14.90;6.30;;;15.00;99.90;;;;;;4960429;28;87728;-35
2023/07/30 01:39:29;;;;;;;11.07;5.57;;;15.00;99.90;;;;;;4961350;28;89903;-36
2023/07/30 01:41:55;;;;;;;10.38;5.40;;;15.00;99.90;;;;;;4961881;28;89875;-38
2023/07/30 01:44:20;;;;;;;10.93;6.38;;;15.00;99.90;;;;;;4961170;28;89692;-31
2023/07/30 01:46:46;;;;;;;16.33;5.85;;;15.00;99.90;;;;;;4961874;28;89053;-37
2023/07/30 01:49:12;;;;;;;17.35;5.85;;;14.90;99.90;;;;;;4961632;28;90222;-38
2023/07/30 01:51:37;;;;;;;14.50;5.70;;;14.90;99.90;;;;;;4960901;28;89914;-39
2023/07/30 01:54:03;;;;;;;11.40;6.38;;;14.90;99.90;;;;;;4961425;28;90060;-39
2023/07/30 01:56:29;;;;;;;8.82;5.63;;;14.80;99.90;;;;;;4960281;28;87512;-33
2023/07/30 01:58:55;;;;;;;11.45;6.15;;;14.80;99.90;;;;;;4960929;28;90137;-38
2023/07/30 02:01:20;;;;;;;10.18;4.70;;;14.80;99.90;;;;;;4957948;28;89640;-34
2023/07/30 02:03:46;;;;;;;9.27;5.72;;;14.80;99.90;;;;;;4961281;28;87519;-33
2023/07/30 02:06:12;;;;;;;12.73;5.30;;;14.70;99.90;;;;;;4960796;28;88005;-34
2023/07/30 02:08:37;;;;;;;13.50;5.68;;;14.70;99.90;;;;;;4961246;28;90093;-32
2023/07/30 02:11:03;;;;;;;15.50;5.43;;;14.70;99.90;;;;;;4959439;28;89168;-33
2023/07/30 02:13:29;;;;;;;13.95;5.57;;;14.70;99.90;;;;;;4959916;28;90007;-34
2023/07/30 02:15:55;;;;;;;12.88;5.30;;;14.60;99.90;;;;;;4961144;28;88783;-36
2023/07/30 02:18:20;;;;;;;10.93;5.63;;;14.60;99.90;;;;;;4960436;28;90093;-40
2023/07/30 02:20:46;;;;;;;14.18;5.00;;;14.70;99.90;;;;;;4960748;28;90378;-37
2023/07/30 02:23:14;;;;;;;8.93;4.90;;;14.70;99.90;;;;;;4961222;28;87654;-31
2023/07/30 02:25:39;;;;;;;14.10;6.20;;;14.70;99.90;;;;;;4959990;28;89137;-33
2023/07/30 02:28:05;;;;;;;12.00;5.70;;;14.60;99.90;;;;;;4960713;28;90315;-40
2023/07/30 02:30:32;;;;;;;9.85;5.47;;;14.70;99.90;;;;;;4960629;28;88796;-37
2023/07/30 02:32:58;;;;;;;10.57;5.15;;;14.60;99.90;;;;;;4960492;28;89077;-34
2023/07/30 02:35:23;;;;;;;10.35;5.88;;;14.60;99.90;;;;;;4960820;28;89488;-37
2023/07/30 02:37:49;;;;;;;8.68;4.75;;;14.60;99.90;;;;;;4959924;28;89804;-34
2023/07/30 02:40:14;;;;;;;10.85;5.55;;;14.60;99.90;;;;;;4960363;28;89549;-39
2023/07/30 02:42:40;;;;;;;10.15;5.90;;;14.60;99.90;;;;;;4961159;28;89847;-35
2023/07/30 02:45:06;;;;;;;10.48;4.82;;;14.60;99.90;;;;;;4959540;28;89115;-38
2023/07/30 02:47:32;;;;;;;9.07;4.47;;;14.60;99.90;;;;;;4960375;28;90204;-38
2023/07/30 02:49:57;;;;;;;7.97;5.05;;;14.60;99.90;;;;;;4959723;28;90187;-35
2023/07/30 02:52:23;;;;;;;8.13;4.53;;;14.60;99.90;;;;;;4960637;28;89422;-34
2023/07/30 02:54:48;;;;;;;8.80;4.53;;;14.60;99.90;;;;;;4960395;28;89539;-34
2023/07/30 02:57:14;;;;;;;11.90;5.32;;;14.60;99.90;;;;;;4959984;28;90187;-38
2023/07/30 02:59:40;;;;;;;15.52;5.13;;;14.60;99.90;;;;;;4959966;28;91578;-32
2023/07/30 03:02:06;;;;;;;8.57;4.53;;;14.60;99.90;;;;;;4960566;28;88001;-32
2023/07/30 03:04:32;;;;;;;13.65;4.68;;;14.60;99.90;;;;;;4960686;28;88432;-35
2023/07/30 03:06:57;;;;;;;7.07;4.05;;;14.50;99.90;;;;;;4960166;28;89779;-35
2023/07/30 03:09:23;;;;;;;12.38;4.85;;;14.60;99.90;;;;;;4959404;28;90618;-36
2023/07/30 03:11:52;;;;;;;9.93;5.65;;;14.60;99.90;;;;;;4959726;28;90165;-35
2023/07/30 03:14:20;;;;;;;7.72;3.80;;;14.60;99.90;;;;;;4959865;28;88350;-35
2023/07/30 03:16:47;;;;;;;10.07;4.20;;;14.60;99.90;;;;;;4959718;28;91030;-34
2023/07/30 03:19:13;;;;;;;9.38;6.07;;;14.60;99.90;;;;;;4960211;28;89505;-34
2023/07/30 03:21:39;;;;;;;7.13;4.25;;;14.50;99.90;;;;;;4959742;28;88544;-35
2023/07/30 03:24:04;;;;;;;11.60;4.20;;;14.50;99.90;;;;;;4960100;28;89893;-31
2023/07/30 03:26:30;;;;;;;12.20;4.95;;;14.50;99.90;;;;;;4959895;28;90544;-32
2023/07/30 03:28:56;;;;;;;10.55;4.05;;;14.50;99.90;;;;;;4960000;28;90120;-37
2023/07/30 03:31:21;;;;;;;10.15;4.25;;;14.50;99.90;;;;;;4960917;28;90048;-39
2023/07/30 03:33:47;;;;;;;10.93;4.13;;;14.50;99.90;;;;;;4959799;28;89376;-32
2023/07/30 03:36:13;;;;;;;13.00;4.38;;;14.50;99.90;;;;;;4959305;28;90213;-37
2023/07/30 03:38:39;;;;;;;7.63;4.10;;;14.50;99.90;;;;;;4960030;28;89594;-33
2023/07/30 03:41:06;;;;;;;6.32;4.30;;;14.50;99.90;;;;;;4960227;28;89628;-32
2023/07/30 03:43:32;;;;;;;13.90;4.43;;;14.40;99.90;;;;;;4960021;28;90133;-34
2023/07/30 03:45:58;;;;;;;7.78;4.15;;;14.40;99.90;;;;;;4960207;28;90398;-34
2023/07/30 03:48:23;;;;;;;8.43;4.97;;;14.40;99.90;;;;;;4959019;28;89371;-31
2023/07/30 03:50:49;;;;;;;8.93;4.32;;;14.40;99.90;;;;;;4960810;28;89859;-38
2023/07/30 03:53:15;;;;;;;11.90;4.88;;;14.40;99.90;;;;;;4959777;28;87961;-38
2023/07/30 03:55:41;;;;;;;10.20;4.75;;;14.40;99.90;;;;;;4960458;28;90108;-37
2023/07/30 03:58:06;;;;;;;9.02;4.97;;;14.40;99.90;;;;;;4959802;28;89647;-35
2023/07/30 04:00:32;;;;;;;8.18;5.00;;;14.40;99.90;;;;;;4959660;28;87619;-32
2023/07/30 04:02:58;;;;;;;23.80;6.35;;;14.40;99.90;;;;;;4960600;28;89903;-34
2023/07/30 04:05:24;;;;;;;8.90;4.65;;;14.40;99.90;;;;;;4958747;28;90791;-32
2023/07/30 04:07:49;;;;;;;8.68;5.47;;;14.40;99.90;;;;;;4960356;28;89484;-41
2023/07/30 04:10:15;;;;;;;7.30;4.65;;;14.40;99.90;;;;;;4959293;28;89858;-35
2023/07/30 04:12:41;;;;;;;10.60;5.32;;;14.40;99.90;;;;;;4959382;28;88822;-37
2023/07/30 04:15:07;;;;;;;10.63;4.95;;;14.40;99.90;;;;;;4959752;28;90250;-35
2023/07/30 04:17:33;;;;;;;13.65;5.75;;;14.30;99.90;;;;;;4959667;28;90849;-35
2023/07/30 04:19:59;;;;;;;13.38;4.88;;;14.30;99.90;;;;;;4959898;28;88837;-37
2023/07/30 04:22:25;;;;;;;9.88;5.10;;;14.30;99.90;;;;;;4959716;28;88689;-34
2023/07/30 04:24:50;;;;;;;10.20;4.75;;;14.30;99.90;;;;;;4959016;28;90448;-34
2023/07/30 04:27:16;;;;;;;10.25;5.15;;;14.30;99.90;;;;;;4959586;28;90000;-36
2023/07/30 04:29:41;;;;;;;8.18;4.13;;;14.30;99.90;;;;;;4959691;28;90336;-31
2023/07/30 04:32:07;;;;;;;11.57;6.13;;;14.30;99.90;;;;;;4959560;28;89030;-37
2023/07/30 04:34:33;;;;;;;13.95;5.35;;;14.30;99.90;;;;;;4974599;28;91559;-35
2023/07/30 04:36:58;;;;;;;11.57;5.05;;;14.30;99.90;;;;;;4962166;28;90629;-34
2023/07/30 04:39:24;;;;;;;13.98;6.68;;;14.40;99.90;;;;;;4962983;28;88966;-34
2023/07/30 04:41:50;;;;;;;12.07;6.28;;;14.40;99.90;;;;;;4962516;28;90178;-35
2023/07/30 04:44:15;;;;;;;18.27;6.70;;;14.30;99.90;;;;;;4962523;28;90403;-35
2023/07/30 04:46:41;;;;;;;11.00;5.93;;;14.40;99.90;;;;;;4961515;28;89774;-36
2023/07/30 04:49:06;;;;;;;8.02;4.82;;;14.40;99.90;;;;;;4962696;28;88364;-36
2023/07/30 04:51:32;;;;;;;15.85;5.95;;;14.40;99.90;;;;;;4961975;28;88914;-34
2023/07/30 04:53:58;;;;;;;9.20;5.68;;;14.40;99.90;;;;;;4962278;28;89067;-31
2023/07/30 04:56:26;;;;;;;10.88;6.93;;;14.50;99.90;;;;;;4962229;28;90331;-32
2023/07/30 04:58:52;;;;;;;14.95;6.05;;;14.50;99.90;;;;;;4962539;28;88755;-32
2023/07/30 05:01:17;;;;;;;12.18;5.60;;;14.60;99.90;;;;;;4962346;28;90632;-34
2023/07/30 05:03:43;;;;;;;11.95;6.20;;;14.60;99.90;;;;;;4962349;28;90454;-34
2023/07/30 05:06:08;;;;;;;8.75;5.53;;;14.60;99.90;;;;;;4961583;28;89898;-34
2023/07/30 05:08:34;;;;;;;9.23;5.40;;;14.60;99.90;;;;;;4962413;28;88604;-35
2023/07/30 05:10:59;;;;;;;14.48;7.18;;;14.70;99.90;;;;;;4961439;28;88706;-36
2023/07/30 05:13:25;;;;;;;12.05;6.95;;;14.70;99.90;;;;;;4961845;28;90412;-34
2023/07/30 05:15:51;;;;;;;12.68;5.75;;;14.70;99.90;;;;;;4962130;28;91628;-38
2023/07/30 05:18:16;;;;;;;14.00;5.85;;;14.70;99.90;;;;;;4962022;28;89415;-35
2023/07/30 05:20:42;;;;;;;19.70;7.03;;;14.80;99.90;;;;;;4963085;28;87669;-32
2023/07/30 05:23:07;;;;;;;14.13;7.25;;;14.80;99.90;;;;;;4960879;28;90776;-35
2023/07/30 05:25:33;;;;;;;16.25;6.80;;;14.80;99.90;;;;;;4962178;28;89818;-34
2023/07/30 05:27:59;;;;;;;12.25;6.10;;;14.90;99.90;;;;;;4961140;28;89176;-38
2023/07/30 05:30:24;;;;;;;10.70;6.57;;;14.90;99.90;;;;;;4962300;28;87659;-32
2023/07/30 05:32:50;;;;;;;16.45;6.72;;;15.00;99.90;;;;;;4961803;28;92355;-33
2023/07/30 05:35:16;;;;;;;9.20;6.20;;;15.00;99.90;;;;;;4960922;28;90025;-32
2023/07/30 05:37:42;;;;;;;11.52;6.47;;;15.00;99.90;;;;;;4962602;28;90322;-31
2023/07/30 05:40:08;;;;;;;15.20;6.13;;;15.10;99.90;;;;;;4961173;28;88673;-34
2023/07/30 05:42:33;;;;;;;10.45;5.53;;;15.10;99.90;;;;;;4962174;28;90421;-35
2023/07/30 05:44:59;;;;;;;16.25;7.15;;;15.10;99.90;;;;;;4960646;28;89951;-34
2023/07/30 05:47:24;;;;;;;13.85;7.78;;;15.10;99.90;;;;;;4961276;28;89047;-34
2023/07/30 05:49:50;;;;;;;12.65;6.60;;;15.20;99.90;;;;;;4961460;28;89313;-36
2023/07/30 05:52:16;;;;;;;13.52;6.35;;;15.20;99.90;;;;;;4961252;28;90394;-36
2023/07/30 05:54:41;;;;;;;14.75;6.63;;;15.20;99.90;;;;;;4961315;28;89627;-31
2023/07/30 05:57:07;;;;;;;11.43;6.35;;;15.30;99.90;;;;;;4961730;28;88205;-32
2023/07/30 05:59:32;;;;;;;16.58;6.47;;;15.30;99.90;;;;;;4961533;28;89076;-36
2023/07/30 06:02:02;;;;;;;16.52;6.50;;;15.40;99.90;;;;;;4960616;28;89158;-34
2023/07/30 06:04:28;;;;;;;11.00;6.38;;;15.40;99.90;;;;;;4960786;28;90344;-34
2023/07/30 06:06:54;;;;;;;16.20;7.07;;;15.50;99.90;;;;;;4960977;28;88370;-32
2023/07/30 06:09:19;;;;;;;11.95;6.00;;;15.50;99.90;;;;;;4962340;28;89251;-31
2023/07/30 06:11:45;;;;;;;19.23;7.93;;;15.50;99.90;;;;;;4960668;28;90034;-31
2023/07/30 06:14:11;;;;;;;17.92;6.97;;;15.50;99.90;;;;;;4961445;28;89161;-36
2023/07/30 06:16:36;;;;;;;16.40;6.05;;;15.60;99.90;;;;;;4960748;28;87576;-33
2023/07/30 06:19:02;;;;;;;10.75;6.78;;;15.60;99.90;;;;;;4961760;28;89663;-31
2023/07/30 06:21:28;;;;;;;22.05;7.18;;;15.70;99.90;;;;;;4960568;28;90395;-35
2023/07/30 06:23:53;;;;;;;15.48;6.82;;;15.80;99.90;;;;;;4961065;28;88221;-30
2023/07/30 06:26:19;;;;;;;10.93;6.13;;;15.80;99.90;;;;;;4961055;28;89262;-34
2023/07/30 06:28:45;;;;;;;12.90;7.25;;;15.80;99.90;;;;;;4960880;28;89678;-32
2023/07/30 06:31:10;;;;;;;17.40;7.00;;;15.80;99.90;;;;;;4960252;28;90636;-34
2023/07/30 06:33:37;;;;;;;16.63;6.28;;;15.90;99.90;;;;;;4961133;28;89575;-31
2023/07/30 06:36:03;;;;;;;12.70;6.43;;;15.90;99.90;;;;;;4961657;28;88268;-33
2023/07/30 06:38:29;;;;;;;19.08;7.20;;;16.10;99.90;;;;;;4960656;28;87624;-35
2023/07/30 06:40:57;;;;;;;19.35;6.75;;;16.20;99.90;;;;;;4961089;28;89318;-38
2023/07/30 06:43:23;;;;;;;12.55;7.13;;;16.30;99.90;;;;;;4960065;28;90245;-36
2023/07/30 06:45:49;;;;;;;20.60;6.70;;;16.40;99.90;;;;;;4961307;28;88517;-36
2023/07/30 06:48:15;;;;;;;11.82;6.45;;;16.40;99.90;;;;;;4960589;28;87631;-36
2023/07/30 06:50:41;;;;;;;14.23;6.55;;;16.40;99.90;;;;;;4960479;28;90242;-34
2023/07/30 06:53:07;;;;;;;16.33;6.35;;;16.40;99.90;;;;;;4960629;28;89573;-35
2023/07/30 06:55:33;;;;;;;14.82;7.60;;;16.40;99.90;;;;;;4960388;28;88356;-31
2023/07/30 06:57:59;;;;;;;15.18;7.20;;;16.50;99.90;;;;;;4960071;28;89254;-38
2023/07/30 07:00:24;;;;;;;16.40;6.60;;;16.50;99.90;;;;;;4959248;28;89145;-37
2023/07/30 07:02:50;;;;;;;22.30;7.25;;;16.60;99.90;;;;;;4960438;28;89936;-34
2023/07/30 07:05:16;;;;;;;19.58;7.22;;;16.70;99.90;;;;;;4960824;28;88230;-34
2023/07/30 07:07:42;;;;;;;12.05;6.55;;;16.80;99.90;;;;;;4958205;28;89578;-36
2023/07/30 07:10:08;;;;;;;15.13;6.32;;;16.90;99.90;;;;;;4958518;28;89953;-32
2023/07/30 07:12:34;;;;;;;20.00;7.22;;;17.20;99.90;;;;;;4958337;28;89430;-35
2023/07/30 07:15:01;;;;;;;23.05;7.45;;;17.40;99.90;;;;;;4959133;28;89374;-34
2023/07/30 07:17:27;;;;;;;18.98;8.15;;;17.40;99.90;;;;;;4958486;28;88756;-37
2023/07/30 07:19:53;;;;;;;14.80;6.70;;;17.40;99.90;;;;;;4958293;28;90034;-31
2023/07/30 07:22:19;;;;;;;13.95;6.55;;;17.50;99.90;;;;;;4940533;28;88735;-38
2023/07/30 07:24:45;;;;;;;18.50;6.03;;;17.50;99.90;;;;;;4958518;28;89614;-33
2023/07/30 07:27:11;;;;;;;17.27;6.97;;;17.50;99.90;;;;;;4958232;28;89004;-34
2023/07/30 07:29:37;;;;;;;21.33;7.68;;;17.60;99.90;;;;;;4958667;28;90279;-33
2023/07/30 07:32:03;;;;;;;17.88;6.25;;;17.60;99.90;;;;;;4957350;28;90379;-37
2023/07/30 07:34:29;;;;;;;14.20;7.22;;;17.70;99.90;;;;;;4958841;28;88602;-33
2023/07/30 07:36:54;;;;;;;15.68;6.35;;;17.60;99.90;;;;;;4958922;28;89139;-34
2023/07/30 07:39:20;;;;;;;14.23;5.93;;;17.60;99.90;;;;;;4956634;28;90125;-31
2023/07/30 07:41:46;;;;;;;18.42;7.00;;;17.60;99.90;;;;;;4957569;28;89553;-32
2023/07/30 07:44:11;;;;;;;16.40;5.75;;;17.50;99.90;;;;;;4957815;28;87552;-31
2023/07/30 07:46:37;;;;;;;12.45;6.25;;;17.70;99.90;;;;;;4957503;28;88488;-35
2023/07/30 07:49:03;;;;;;;17.17;5.18;;;17.70;99.90;;;;;;4957757;28;89516;-37
2023/07/30 07:51:28;;;;;;;15.35;6.85;;;17.70;99.90;;;;;;4957058;28;89245;-39
2023/07/30 07:53:54;;;;;;;12.43;6.43;;;17.70;99.90;;;;;;4958101;28;90276;-31
2023/07/30 07:56:20;;;;;;;9.88;5.43;;;18.20;99.90;;;;;;4957076;28;88708;-34
2023/07/30 07:58:45;;;;;;;9.02;5.50;;;18.50;99.90;;;;;;4957863;28;90274;-37
2023/07/30 08:01:11;;;;;;;12.68;6.65;;;18.90;99.90;;;;;;4956447;28;89612;-37
2023/07/30 08:03:37;;;;;;;14.32;6.25;;;19.20;99.90;;;;;;4957193;28;88933;-38
2023/07/30 08:06:02;;;;;;;14.27;6.20;;;19.30;99.90;;;;;;4957650;28;88742;-36
2023/07/30 08:08:28;;;;;;;14.35;6.45;;;19.10;99.90;;;;;;4956002;28;89527;-31
2023/07/30 08:10:54;;;;;;;11.57;6.00;;;18.90;99.90;;;;;;4994498;22;89428;-36
2023/07/30 08:13:20;;;;;;;13.68;7.03;;;19.10;99.90;;;;;;4976311;28;88871;-36
2023/07/30 08:15:46;;;;;;;13.57;6.70;;;19.70;99.90;;;;;;4981167;28;89268;-39
2023/07/30 08:18:11;;;;;;;10.18;5.80;;;19.60;99.90;;;;;;4980037;28;89825;-36
2023/07/30 08:20:37;;;;;;;18.77;5.93;;;19.70;99.90;;;;;;4978662;28;89741;-34
2023/07/30 08:23:03;;;;;;;10.32;5.40;;;19.70;99.90;;;;;;4978641;28;88778;-37
2023/07/30 08:25:29;;;;;;;15.98;6.55;;;19.90;99.90;;;;;;4978825;28;87663;-33
2023/07/30 08:27:55;;;;;;;15.65;5.68;;;20.00;99.90;;;;;;4978256;28;90056;-32
2023/07/30 08:30:21;;;;;;;13.35;5.82;;;19.90;99.90;;;;;;4979910;28;89288;-35
2023/07/30 08:32:46;;;;;;;12.70;5.95;;;20.00;99.90;;;;;;4976253;28;89555;-38
2023/07/30 08:35:12;;;;;;;13.35;4.93;;;19.80;99.90;;;;;;4972458;28;89715;-33
2023/07/30 08:37:38;;;;;;;10.65;4.90;;;19.80;99.90;;;;;;4971200;28;90033;-31
2023/07/30 08:40:04;;;;;;;17.50;5.60;;;19.70;99.90;;;;;;4979666;28;90468;-36
2023/07/30 08:42:29;;;;;;;7.90;4.57;;;19.90;99.90;;;;;;4971612;28;88570;-36
2023/07/30 08:44:55;;;;;;;11.57;5.50;;;19.90;99.90;;;;;;4977861;28;88324;-35
2023/07/30 08:47:21;;;;;;;10.13;4.78;;;19.70;99.90;;;;;;4976062;28;90258;-31
2023/07/30 08:49:46;;;;;;;10.57;4.95;;;19.60;99.90;;;;;;4970627;28;89486;-33
2023/07/30 08:52:13;;;;;;;9.95;5.57;;;19.60;99.90;;;;;;4970677;28;87549;-33
2023/07/30 08:54:40;;;;;;;15.88;5.50;;;19.50;99.90;;;;;;4977839;28;88716;-34
2023/07/30 08:57:06;;;;;;;17.63;5.50;;;19.40;99.90;;;;;;4970088;28;90590;-33
2023/07/30 08:59:42;;;;;;;12.25;4.72;;;19.80;99.90;;;;;;4977915;28;90485;-35
2023/07/30 09:02:17;;;;;;;8.50;4.53;;;19.70;99.90;;;;;;4986579;28;87551;-33
2023/07/30 09:04:47;;;;;;;10.93;5.32;;;20.00;99.90;;;;;;4970094;28;89919;-38
2023/07/30 09:07:13;;;;;;;9.25;4.10;;;20.00;99.90;;;;;;4966372;28;90716;-34
2023/07/30 09:09:40;;;;;;;15.05;4.70;;;19.90;99.90;;;;;;4969806;28;89941;-32
2023/07/30 09:12:14;;;;;;;8.85;4.78;;;19.70;99.90;;;;;;4963633;28;89871;-34
2023/07/30 09:14:40;;;;;;;8.30;4.82;;;19.50;99.90;;;;;;4971426;28;89768;-33
2023/07/30 09:17:05;;;;;;;11.48;4.95;;;19.50;99.90;;;;;;4970271;28;90534;-32
2023/07/30 09:19:35;;;;;;;17.20;5.90;;;19.30;99.90;;;;;;4965767;28;88445;-34
2023/07/30 09:22:05;;;;;;;13.40;5.85;;;19.30;99.90;;;;;;4977543;28;88395;-32
2023/07/30 09:24:31;;;;;;;10.73;4.65;;;19.30;99.90;;;;;;4966362;28;89279;-34
2023/07/30 09:27:02;;;;;;;11.40;4.90;;;19.40;99.90;;;;;;4970816;28;89320;-32
2023/07/30 09:29:28;;;;;;;14.00;6.07;;;19.30;99.90;;;;;;4974077;28;90136;-33
2023/07/30 09:31:55;;;;;;;14.40;6.38;;;19.30;99.90;;;;;;4977354;28;88721;-30
2023/07/30 09:34:22;;;;;;;15.77;5.85;;;19.10;99.90;;;;;;4978104;28;88353;-34
2023/07/30 09:36:51;;;;;;;12.10;5.93;;;19.20;99.90;;;;;;4972395;28;91068;-33
2023/07/30 09:39:24;;;;;;;12.98;5.07;;;19.10;99.90;;;;;;4975323;28;88674;-31
2023/07/30 09:41:51;;;;;;;11.85;5.47;;;19.20;99.90;;;;;;4973726;28;88841;-36
2023/07/30 09:44:21;;;;;;;13.45;5.40;;;19.10;99.90;;;;;;4955902;28;89631;-34
2023/07/30 09:46:48;;;;;;;11.50;5.78;;;19.10;99.90;;;;;;4970744;28;90370;-37
2023/07/30 09:49:14;;;;;;;11.00;5.73;;;19.10;99.90;;;;;;4971819;28;89864;-32
2023/07/30 09:51:40;;;;;;;11.18;5.50;;;19.10;99.90;;;;;;4972469;28;88700;-33
2023/07/30 09:54:12;;;;;;;9.88;6.28;;;19.10;99.90;;;;;;4969009;28;88786;-35
2023/07/30 09:56:39;;;;;;;10.38;4.88;;;19.20;99.90;;;;;;4968431;28;89522;-33
2023/07/30 09:59:06;;;;;;;10.07;4.50;;;19.10;99.90;;;;;;4969120;28;90060;-33
2023/07/30 10:01:35;;;;;;;10.85;4.43;;;19.20;99.90;;;;;;4988207;28;88870;-35
2023/07/30 10:04:06;;;;;;;11.38;5.38;;;18.80;99.90;;;;;;4967976;28;87686;-33
2023/07/30 10:06:35;;;;;;;7.63;3.95;;;18.80;99.90;;;;;;4967792;28;90476;-30
2023/07/30 10:09:01;;;;;;;11.25;4.70;;;18.60;99.90;;;;;;4947579;28;89376;-32
2023/07/30 10:11:28;;;;;;;7.85;3.13;;;18.60;99.90;;;;;;4978982;28;88709;-38
2023/07/30 10:13:55;;;;;;;3.67;2.60;;;17.70;99.90;;;;;;4978996;28;88371;-33
2023/07/30 10:16:26;;;;;;;3.08;2.53;;;17.40;99.90;;;;;;4979088;28;90649;-32
2023/07/30 10:18:57;;;;;;;7.82;3.63;;;17.00;99.90;;;;;;4990856;28;89137;-31
2023/07/30 10:21:25;;;;;;;7.20;2.65;;;17.10;99.90;;;;;;4989246;28;89546;-34
2023/07/30 10:24:03;;;;;;;6.05;2.65;;;16.90;99.90;;;;;;4979440;28;89393;-31
2023/07/30 10:26:32;;;;;;;9.98;3.08;;;16.60;99.90;;;;;;4978288;28;90071;-35
2023/07/30 10:29:19;;;;;;;4.90;2.38;;;16.60;99.90;;;;;;4978121;28;88410;-35
2023/07/30 10:32:03;;;;;;;7.30;3.37;;;16.30;99.90;;;;;;4963331;28;90375;-34
2023/07/30 10:34:45;;;;;;;3.13;2.17;;;16.40;99.90;;;;;;4968242;28;90536;-37
2023/07/30 10:37:11;;;;;;;8.48;2.60;;;16.40;99.90;;;;;;4958081;28;89913;-32
2023/07/30 10:39:36;;;;;;;7.32;3.40;;;16.50;99.90;;;;;;4971523;28;90517;-39
2023/07/30 10:42:02;;;;;;;8.93;3.17;;;16.60;99.90;;;;;;4958702;28;89735;-34
2023/07/30 10:44:33;;;;;;;3.63;2.72;;;16.50;99.90;;;;;;4971514;28;90128;-35
2023/07/30 10:47:00;;;;;;;7.82;3.35;;;16.50;99.90;;;;;;4970493;28;88828;-32
2023/07/30 10:49:26;;;;;;;7.22;3.50;;;16.50;99.90;;;;;;4958135;28;89637;-37
2023/07/30 10:51:53;;;;;;;4.80;3.67;;;16.70;99.90;;;;;;4975337;28;88921;-35
2023/07/30 10:54:19;;;;;;;8.18;2.67;;;16.70;99.90;;;;;;4958616;28;89713;-35
2023/07/30 10:56:46;;;;;;;7.05;2.83;;;16.90;99.90;;;;;;4958833;28;90320;-36
2023/07/30 10:59:12;;;;;;;8.13;3.10;;;16.80;99.90;;;;;;4958366;28;89965;-38
2023/07/30 11:01:43;;;;;;;3.85;2.35;;;16.90;99.90;;;;;;4981344;28;88241;-35
2023/07/30 11:04:18;;;;;;;4.20;3.38;;;17.00;99.90;;;;;;4984266;28;88675;-34
2023/07/30 11:06:49;;;;;;;4.32;3.13;;;17.00;99.90;;;;;;4977875;28;90186;-36
2023/07/30 11:09:22;;;;;;;8.20;3.88;;;17.10;99.90;;;;;;4971262;28;90077;-36
2023/07/30 11:11:49;;;;;;;11.95;4.30;;;17.50;99.90;;;;;;4981466;28;88928;-36
2023/07/30 11:14:16;;;;;;;6.60;4.15;;;17.60;99.90;;;;;;4976666;28;88415;-35
2023/07/30 11:16:52;;;;;;;7.13;3.90;;;17.80;99.90;;;;;;4977536;28;90303;-36
2023/07/30 11:19:18;;;;;;;6.53;3.67;;;17.90;99.90;;;;;;4959558;28;89873;-31
2023/07/30 11:21:45;;;;;;;12.48;3.88;;;18.10;99.90;;;;;;4977786;28;88882;-33
2023/07/30 11:24:11;;;;;;;6.07;3.70;;;18.40;99.90;;;;;;4959905;28;88685;-35
2023/07/30 11:26:36;;;;;;;6.53;3.42;;;18.40;99.90;;;;;;4977017;28;90528;-33
2023/07/30 11:29:20;;;;;;;8.88;3.75;;;18.60;99.90;;;;;;4976469;28;89414;-36
2023/07/30 11:31:46;;;;;;;7.15;3.50;;;18.70;99.90;;;;;;4975623;28;88333;-31
2023/07/30 11:34:14;;;;;;;12.35;5.10;;;18.60;99.90;;;;;;4957779;28;88452;-34
2023/07/30 11:36:42;;;;;;;5.28;3.40;;;18.80;99.90;;;;;;4973409;28;90673;-36
2023/07/30 11:39:10;;;;;;;7.97;3.45;;;19.00;99.90;;;;;;4968189;28;89267;-38
2023/07/30 11:41:36;;;;;;;6.40;2.75;;;19.20;99.90;;;;;;4959030;28;89547;-35
2023/07/30 11:44:03;;;;;;;10.93;3.65;;;19.40;99.90;;;;;;4958649;28;89168;-36
2023/07/30 11:46:30;;;;;;;4.07;3.10;;;19.60;99.90;;;;;;4962091;28;89754;-35
2023/07/30 11:49:21;;;;;;;5.10;3.33;;;19.70;99.90;;;;;;4961510;28;89389;-35
2023/07/30 11:51:48;;;;;;;5.25;2.97;;;19.80;99.90;;;;;;4943867;28;88817;-37
2023/07/30 11:54:21;;;;;;;4.03;2.17;;;19.80;99.90;;;;;;4961946;28;89874;-34
2023/07/30 11:56:46;;;;;;;10.60;3.42;;;19.70;99.90;;;;;;4980116;28;89273;-35
2023/07/30 11:59:12;;;;;;;7.57;3.22;;;19.70;99.90;;;;;;4978083;28;89418;-38
2023/07/30 12:01:38;;;;;;;10.45;2.53;;;19.70;99.90;;;;;;4990930;28;90898;-37
2023/07/30 12:04:05;;;;;;;5.80;2.92;;;19.70;99.90;;;;;;4964068;28;88768;-34
2023/07/30 12:06:48;;;;;;;8.43;2.90;;;19.80;99.90;;;;;;4941731;28;90309;-34
2023/07/30 12:09:21;;;;;;;8.73;3.45;;;19.80;99.90;;;;;;4965927;28;90535;-39
2023/07/30 12:11:57;;;;;;;5.05;3.13;;;19.80;99.90;;;;;;4964117;28;90072;-38
2023/07/30 12:14:29;;;;;;;6.47;2.53;;;20.00;99.90;;;;;;4959545;28;88921;-36
2023/07/30 12:17:04;;;;;;;4.53;2.83;;;20.00;99.90;;;;;;4972576;28;90151;-37
2023/07/30 12:19:30;;;;;;;13.10;2.45;;;20.10;99.90;;;;;;4972983;28;90421;-38
2023/07/30 12:21:56;;;;;;;8.35;3.25;;;20.00;99.90;;;;;;4960918;28;89950;-36
2023/07/30 12:24:22;;;;;;;9.35;3.45;;;19.80;99.90;;;;;;4959433;28;87945;-35
2023/07/30 12:26:47;;;;;;;9.10;2.80;;;19.70;99.90;;;;;;4961372;28;90080;-35
2023/07/30 12:29:13;;;;;;;4.93;2.63;;;19.60;99.90;;;;;;4973493;28;89644;-33
2023/07/30 12:31:39;;;;;;;5.63;3.05;;;19.70;99.90;;;;;;4977984;28;89543;-35
2023/07/30 12:34:04;;;;;;;6.25;3.17;;;19.60;99.90;;;;;;4978726;28;89414;-32
2023/07/30 12:36:30;;;;;;;7.80;2.53;;;19.70;99.90;;;;;;4978189;28;90177;-33
2023/07/30 12:38:56;;;;;;;8.07;2.53;;;19.80;99.90;;;;;;4978435;28;89571;-34